Mt Bomar Mars — 9HCM9 — position and weather

sailwx.info

Track history (hours):
 
Tides and Currents Weather Stations Pressure Air Temp Water Temp Dewpoint Dewpoint Depression Visibility Wind Speed Wind Dir Waves Ship Positions

Mt Bomar Mars

Last reported at 2014-Oct-31 20:28 UTC. Time now 2014-Oct-31 23:06 UTC.
Position N 53°43' E 001°32'.

Length 107 m; draft 6.2 m.

Type: Tanker. MMSI: 256784000.

Date/timePositionNaut miles runAvg speedWind from/ knotsBaromVisibWave heightAir tempDewpointWater temp
2014-Oct-31 20:28N 53°43' E 001°32'1110.8
2014-Oct-31 19:30N 53°52' E 001°25'2110.1
2014-Oct-31 17:27N 54°08' E 001°03'1011.1
2014-Oct-31 16:34N 54°14' E 000°49'1211.5
2014-Oct-31 15:33N 54°20' E 000°33'1111.0
2014-Oct-31 14:34N 54°27' E 000°17'1111.2
2014-Oct-31 13:34N 54°33' E 000°01'1211.6
2014-Oct-31 12:34N 54°39' W 000°16'1211.8
2014-Oct-31 11:33N 54°41' W 000°36'1212.4
2014-Oct-31 10:34N 54°41' W 000°58'8 6.0
2014-Oct-31 09:09N 54°37' W 001°10'0 0.0
2014-Oct-31 08:27N 54°37' W 001°10'0 0.0
2014-Oct-30 15:15N 54°37' W 001°10'0 0.0
2014-Oct-30 14:33N 54°37' W 001°10'0 0.0
2014-Oct-30 13:21N 54°37' W 001°10'0 0.0
2014-Oct-30 12:18N 54°37' W 001°10'0 0.0
2014-Oct-30 11:21N 54°37' W 001°10'2 0.4
2014-Oct-30 05:32N 54°39' W 001°09'5 5.6
2014-Oct-30 04:33N 54°42' W 001°01'0 0.1
2014-Oct-30 03:33N 54°42' W 001°01'0 0.0
2014-Oct-30 02:30N 54°42' W 001°01'0 0.0
2014-Oct-30 01:33N 54°42' W 001°01'0 0.0
2014-Oct-30 00:33N 54°42' W 001°01'0 0.0
2014-Oct-29 23:33N 54°42' W 001°01'0 0.0
2014-Oct-29 22:30N 54°42' W 001°01'0 0.0
2014-Oct-29 21:33N 54°42' W 001°01'0 0.0
2014-Oct-29 20:27N 54°42' W 001°01'0 0.1
2014-Oct-29 19:33N 54°42' W 001°01'0 0.0
2014-Oct-29 18:33N 54°42' W 001°01'0 0.0
2014-Oct-29 17:21N 54°42' W 001°01'0 0.0
2014-Oct-29 16:33N 54°42' W 001°01'0 0.1
2014-Oct-29 15:24N 54°41' W 001°01'0 0.0
2014-Oct-29 14:06N 54°41' W 001°01'0 0.0
2014-Oct-29 13:21N 54°41' W 001°01'0 0.0
2014-Oct-29 12:27N 54°41' W 001°01'0 0.0
2014-Oct-29 11:27N 54°41' W 001°01'0 0.1
2014-Oct-29 10:27N 54°41' W 001°01'0 0.1
2014-Oct-29 09:30N 54°41' W 001°01'0 0.0
2014-Oct-29 08:30N 54°41' W 001°01'0 0.0
2014-Oct-29 07:33N 54°41' W 001°01'0 0.0
2014-Oct-29 06:14N 54°41' W 001°01'0 0.0
2014-Oct-29 05:34N 54°41' W 001°01'0 0.0
2014-Oct-29 04:33N 54°41' W 001°01'0 0.0
2014-Oct-29 03:33N 54°41' W 001°01'0 0.0
2014-Oct-29 02:30N 54°41' W 001°01'0 0.0
2014-Oct-29 01:33N 54°41' W 001°01'0 0.0
2014-Oct-29 00:34N 54°41' W 001°01'0 0.0
2014-Oct-28 23:34N 54°41' W 001°01'0 0.0
2014-Oct-28 22:33N 54°41' W 001°01'0 0.0
2014-Oct-28 21:33N 54°41' W 001°01'0 0.0
2014-Oct-28 20:34N 54°41' W 001°01'0 0.0
2014-Oct-28 19:30N 54°41' W 001°01'0 0.0
2014-Oct-28 18:33N 54°41' W 001°01'0 0.0
2014-Oct-28 17:27N 54°41' W 001°01'0 0.1
2014-Oct-28 16:30N 54°41' W 001°01'0 0.2
2014-Oct-28 15:33N 54°42' W 001°01'0 0.0
2014-Oct-28 14:30N 54°42' W 001°01'0 0.1
2014-Oct-28 13:30N 54°42' W 001°01'0 0.0
2014-Oct-28 12:21N 54°42' W 001°01'0 0.0
2014-Oct-28 11:21N 54°42' W 001°01'0 0.0
2014-Oct-28 10:33N 54°42' W 001°01'0 0.0
2014-Oct-28 09:21N 54°42' W 001°01'0 0.0
2014-Oct-28 08:24N 54°42' W 001°01'0 0.0
2014-Oct-28 07:27N 54°42' W 001°01'0 0.0
2014-Oct-28 06:09N 54°42' W 001°01'0 0.0
2014-Oct-28 05:33N 54°42' W 001°01'0 0.0
2014-Oct-28 04:33N 54°42' W 001°01'0 0.0
2014-Oct-28 03:33N 54°42' W 001°01'0 0.0
2014-Oct-28 02:33N 54°42' W 001°01'0 0.0
2014-Oct-28 01:30N 54°42' W 001°01'0 0.0
2014-Oct-28 00:33N 54°42' W 001°01'0 0.0
2014-Oct-27 23:33N 54°42' W 001°01'0 0.0
2014-Oct-27 22:33N 54°42' W 001°01'0 0.0
2014-Oct-27 21:33N 54°42' W 001°01'0 0.0
2014-Oct-27 20:33N 54°42' W 001°01'0 0.0
2014-Oct-27 19:33N 54°42' W 001°01'0 0.0
2014-Oct-27 18:30N 54°42' W 001°01'0 0.0
2014-Oct-27 17:33N 54°42' W 001°01'0 0.0
2014-Oct-27 16:30N 54°42' W 001°01'0 0.0
2014-Oct-27 15:24N 54°42' W 001°01'0 0.0
2014-Oct-27 14:27N 54°42' W 001°01'0 0.0
2014-Oct-27 13:33N 54°42' W 001°01'0 0.0
2014-Oct-27 12:27N 54°42' W 001°01'0 0.0
2014-Oct-27 11:33N 54°42' W 001°01'0 0.0
2014-Oct-27 10:30N 54°42' W 001°01'0 0.0
2014-Oct-27 09:33N 54°42' W 001°01'0 0.0
2014-Oct-27 08:06N 54°42' W 001°01'0 0.0
2014-Oct-27 07:24N 54°42' W 001°01'0 0.0
2014-Oct-27 06:06N 54°42' W 001°01'0 0.1
2014-Oct-27 05:33N 54°42' W 001°01'0 0.0
2014-Oct-27 04:27N 54°42' W 001°01'0 0.0
2014-Oct-27 03:27N 54°42' W 001°01'0 0.0
2014-Oct-27 02:33N 54°42' W 001°01'0 0.0
2014-Oct-27 01:30N 54°42' W 001°01'0 0.0
2014-Oct-27 00:33N 54°42' W 001°01'0 0.0
2014-Oct-26 23:32N 54°42' W 001°01'0 0.0
2014-Oct-26 22:33N 54°42' W 001°01'0 0.0
2014-Oct-26 21:33N 54°42' W 001°01'0 0.0
2014-Oct-26 20:33N 54°42' W 001°01'0 0.0
2014-Oct-26 19:33N 54°42' W 001°01'0 0.0
2014-Oct-26 18:18N 54°42' W 001°01'0 0.0
2014-Oct-26 17:21N 54°42' W 001°01'0 0.0
2014-Oct-26 16:33N 54°42' W 001°01'0 0.0
2014-Oct-26 15:24N 54°42' W 001°01'0 0.0
2014-Oct-26 14:21N 54°42' W 001°01'0 0.0
2014-Oct-26 13:27N 54°42' W 001°01'0 0.0
2014-Oct-26 12:27N 54°42' W 001°01'0 0.0
2014-Oct-26 11:30N 54°42' W 001°01'0 0.0
2014-Oct-26 10:30N 54°42' W 001°01'0 0.0
2014-Oct-26 09:30N 54°42' W 001°01'0 0.0
2014-Oct-26 08:33N 54°42' W 001°01'0 0.0
2014-Oct-26 07:30N 54°42' W 001°01'0 0.0
2014-Oct-26 06:18N 54°42' W 001°01'0 0.1
2014-Oct-26 05:34N 54°42' W 001°01'0 0.0
2014-Oct-26 04:33N 54°42' W 001°01'0 0.0
2014-Oct-26 03:33N 54°42' W 001°01'0 0.0
2014-Oct-26 02:33N 54°42' W 001°01'0 0.0
2014-Oct-26 01:33N 54°42' W 001°01'0 0.0
2014-Oct-26 00:33N 54°42' W 001°01'0 0.0
2014-Oct-25 23:33N 54°42' W 001°01'0 0.0
2014-Oct-25 22:33N 54°42' W 001°01'0 0.0
2014-Oct-25 21:30N 54°42' W 001°01'0 0.0
2014-Oct-25 20:34N 54°42' W 001°01'0 0.0
2014-Oct-25 19:30N 54°42' W 001°01'0 0.0
2014-Oct-25 18:33N 54°42' W 001°01'0 0.0
2014-Oct-25 16:33N 54°42' W 001°01'0 0.0
2014-Oct-25 15:33N 54°42' W 001°01'0 0.0
2014-Oct-25 14:33N 54°42' W 001°01'0 0.0
2014-Oct-25 13:33N 54°42' W 001°01'0 0.0
2014-Oct-25 12:24N 54°42' W 001°01'0 0.0
2014-Oct-25 11:33N 54°42' W 001°01'0 0.0
2014-Oct-25 10:24N 54°42' W 001°01'0 0.0
2014-Oct-25 09:27N 54°42' W 001°01'0 0.0
2014-Oct-25 08:12N 54°42' W 001°01'0 0.0
2014-Oct-25 07:30N 54°42' W 001°01'0 0.0
2014-Oct-25 06:30N 54°42' W 001°01'0 0.0
2014-Oct-25 05:33N 54°42' W 001°01'0 0.0
2014-Oct-25 04:33N 54°42' W 001°01'0 0.0
2014-Oct-25 03:34N 54°42' W 001°01'0 0.0
2014-Oct-25 02:33N 54°42' W 001°01'0 0.0
2014-Oct-25 01:33N 54°42' W 001°01'0 0.0
2014-Oct-25 00:33N 54°42' W 001°01'0 0.0
2014-Oct-24 23:33N 54°42' W 001°01'0 0.0
2014-Oct-24 22:33N 54°42' W 001°01'0 0.0
2014-Oct-24 21:33N 54°42' W 001°01'0 0.0
2014-Oct-24 20:30N 54°42' W 001°01'0 0.0
2014-Oct-24 19:33N 54°42' W 001°01'0 0.0
2014-Oct-24 18:33N 54°42' W 001°01'0 0.0
2014-Oct-24 17:30N 54°42' W 001°01'0 0.0
2014-Oct-24 14:33N 54°42' W 001°01'0 0.0
2014-Oct-24 13:33N 54°42' W 001°01'0 0.0
2014-Oct-24 12:33N 54°42' W 001°01'0 0.0
2014-Oct-24 11:30N 54°42' W 001°01'0 0.1
2014-Oct-24 10:21N 54°42' W 001°01'3 4.4
2014-Oct-24 09:33N 54°40' W 001°06'5 3.6
2014-Oct-24 08:16N 54°36' W 001°10'0 0.0
2014-Oct-23 14:25N 54°36' W 001°10'5 5.8
2014-Oct-23 13:33N 54°41' W 001°07'4 3.6
2014-Oct-23 12:29N 54°42' W 001°00'0 0.0
2014-Oct-23 11:29N 54°42' W 001°00'0 0.0
2014-Oct-23 10:17N 54°42' W 001°01'0 0.0
2014-Oct-23 09:32N 54°42' W 001°01'0 0.0
2014-Oct-23 08:17N 54°42' W 001°01'0 0.0
2014-Oct-23 07:20N 54°42' W 001°00'0 0.1
2014-Oct-23 06:32N 54°42' W 001°00'0 0.1
2014-Oct-23 05:21N 54°42' W 001°01'0 0.1
2014-Oct-23 04:32N 54°42' W 001°00'0 0.0
2014-Oct-23 03:32N 54°42' W 001°00'0 0.0
2014-Oct-23 02:32N 54°42' W 001°00'0 0.0
2014-Oct-23 01:32N 54°42' W 001°00'0 0.0
2014-Oct-23 00:32N 54°42' W 001°00'0 0.1
2014-Oct-22 23:32N 54°42' W 001°00'0 0.0
2014-Oct-22 22:32N 54°42' W 001°00'0 0.0
2014-Oct-22 21:32N 54°42' W 001°00'0 0.0
2014-Oct-22 20:32N 54°42' W 001°01'0 0.0
2014-Oct-22 19:32N 54°42' W 001°00'0 0.1
2014-Oct-22 18:32N 54°42' W 001°00'0 0.0
2014-Oct-22 17:32N 54°42' W 001°00'0 0.0
2014-Oct-22 16:32N 54°42' W 001°00'0 0.0
2014-Oct-22 15:32N 54°42' W 001°00'0 0.0
2014-Oct-22 14:32N 54°42' W 001°00'0 0.0
2014-Oct-22 13:32N 54°42' W 001°00'0 0.0
2014-Oct-22 12:32N 54°42' W 001°00'0 0.0
2014-Oct-22 11:32N 54°42' W 001°00'0 0.2
2014-Oct-22 10:32N 54°42' W 001°01'0 0.0
2014-Oct-22 09:29N 54°42' W 001°01'3 3.3
2014-Oct-22 08:33N 54°43' W 000°55'1111.0
2014-Oct-22 07:33N 54°45' W 000°36'0 0.4
2014-Oct-22 06:33N 54°45' W 000°36'1 0.6
2014-Oct-22 05:32N 54°45' W 000°37'1 1.0
2014-Oct-22 04:33N 54°45' W 000°39'1 1.4
2014-Oct-22 03:33N 54°46' W 000°40'2 1.7
2014-Oct-22 02:33N 54°47' W 000°43'2 1.9
2014-Oct-22 01:32N 54°49' W 000°45'2 1.8
2014-Oct-22 00:32N 54°50' W 000°47'2 1.6
2014-Oct-21 23:32N 54°51' W 000°49'1 1.4
2014-Oct-21 22:32N 54°52' W 000°51'5 4.7
2014-Oct-21 21:34N 54°49' W 000°45'  
Track history (hours):
 
Tides and Currents Weather Stations Pressure Air Temp Water Temp Dewpoint Dewpoint Depression Visibility Wind Speed Wind Dir Waves Ship Positions

Mt Bomar Mars

Last reported at 2014-Oct-31 20:28 UTC. Time now 2014-Oct-31 23:06 UTC.
Position N 53°43' E 001°32'.

Length 107 m; draft 6.2 m.

Type: Tanker. MMSI: 256784000.

Date/timePositionNaut miles runAvg speedWind from/ knotsBaromVisibWave heightAir tempDewpointWater temp
2014-Oct-31 20:28N 53°43' E 001°32'1110.8
2014-Oct-31 19:30N 53°52' E 001°25'2110.1
2014-Oct-31 17:27N 54°08' E 001°03'1011.1
2014-Oct-31 16:34N 54°14' E 000°49'1211.5
2014-Oct-31 15:33N 54°20' E 000°33'1111.0
2014-Oct-31 14:34N 54°27' E 000°17'1111.2
2014-Oct-31 13:34N 54°33' E 000°01'1211.6
2014-Oct-31 12:34N 54°39' W 000°16'1211.8
2014-Oct-31 11:33N 54°41' W 000°36'1212.4
2014-Oct-31 10:34N 54°41' W 000°58'8 6.0
2014-Oct-31 09:09N 54°37' W 001°10'0 0.0
2014-Oct-31 08:27N 54°37' W 001°10'0 0.0
2014-Oct-30 15:15N 54°37' W 001°10'0 0.0
2014-Oct-30 14:33N 54°37' W 001°10'0 0.0
2014-Oct-30 13:21N 54°37' W 001°10'0 0.0
2014-Oct-30 12:18N 54°37' W 001°10'0 0.0
2014-Oct-30 11:21N 54°37' W 001°10'2 0.4
2014-Oct-30 05:32N 54°39' W 001°09'5 5.6
2014-Oct-30 04:33N 54°42' W 001°01'0 0.1
2014-Oct-30 03:33N 54°42' W 001°01'0 0.0
2014-Oct-30 02:30N 54°42' W 001°01'0 0.0
2014-Oct-30 01:33N 54°42' W 001°01'0 0.0
2014-Oct-30 00:33N 54°42' W 001°01'0 0.0
2014-Oct-29 23:33N 54°42' W 001°01'0 0.0
2014-Oct-29 22:30N 54°42' W 001°01'0 0.0
2014-Oct-29 21:33N 54°42' W 001°01'0 0.0
2014-Oct-29 20:27N 54°42' W 001°01'0 0.1
2014-Oct-29 19:33N 54°42' W 001°01'0 0.0
2014-Oct-29 18:33N 54°42' W 001°01'0 0.0
2014-Oct-29 17:21N 54°42' W 001°01'0 0.0
2014-Oct-29 16:33N 54°42' W 001°01'0 0.1
2014-Oct-29 15:24N 54°41' W 001°01'0 0.0
2014-Oct-29 14:06N 54°41' W 001°01'0 0.0
2014-Oct-29 13:21N 54°41' W 001°01'0 0.0
2014-Oct-29 12:27N 54°41' W 001°01'0 0.0
2014-Oct-29 11:27N 54°41' W 001°01'0 0.1
2014-Oct-29 10:27N 54°41' W 001°01'0 0.1
2014-Oct-29 09:30N 54°41' W 001°01'0 0.0
2014-Oct-29 08:30N 54°41' W 001°01'0 0.0
2014-Oct-29 07:33N 54°41' W 001°01'0 0.0
2014-Oct-29 06:14N 54°41' W 001°01'0 0.0
2014-Oct-29 05:34N 54°41' W 001°01'0 0.0
2014-Oct-29 04:33N 54°41' W 001°01'0 0.0
2014-Oct-29 03:33N 54°41' W 001°01'0 0.0
2014-Oct-29 02:30N 54°41' W 001°01'0 0.0
2014-Oct-29 01:33N 54°41' W 001°01'0 0.0
2014-Oct-29 00:34N 54°41' W 001°01'0 0.0
2014-Oct-28 23:34N 54°41' W 001°01'0 0.0
2014-Oct-28 22:33N 54°41' W 001°01'0 0.0
2014-Oct-28 21:33N 54°41' W 001°01'0 0.0
2014-Oct-28 20:34N 54°41' W 001°01'0 0.0
2014-Oct-28 19:30N 54°41' W 001°01'0 0.0
2014-Oct-28 18:33N 54°41' W 001°01'0 0.0
2014-Oct-28 17:27N 54°41' W 001°01'0 0.1
2014-Oct-28 16:30N 54°41' W 001°01'0 0.2
2014-Oct-28 15:33N 54°42' W 001°01'0 0.0
2014-Oct-28 14:30N 54°42' W 001°01'0 0.1
2014-Oct-28 13:30N 54°42' W 001°01'0 0.0
2014-Oct-28 12:21N 54°42' W 001°01'0 0.0
2014-Oct-28 11:21N 54°42' W 001°01'0 0.0
2014-Oct-28 10:33N 54°42' W 001°01'0 0.0
2014-Oct-28 09:21N 54°42' W 001°01'0 0.0
2014-Oct-28 08:24N 54°42' W 001°01'0 0.0
2014-Oct-28 07:27N 54°42' W 001°01'0 0.0
2014-Oct-28 06:09N 54°42' W 001°01'0 0.0
2014-Oct-28 05:33N 54°42' W 001°01'0 0.0
2014-Oct-28 04:33N 54°42' W 001°01'0 0.0
2014-Oct-28 03:33N 54°42' W 001°01'0 0.0
2014-Oct-28 02:33N 54°42' W 001°01'0 0.0
2014-Oct-28 01:30N 54°42' W 001°01'0 0.0
2014-Oct-28 00:33N 54°42' W 001°01'0 0.0
2014-Oct-27 23:33N 54°42' W 001°01'0 0.0
2014-Oct-27 22:33N 54°42' W 001°01'0 0.0
2014-Oct-27 21:33N 54°42' W 001°01'0 0.0
2014-Oct-27 20:33N 54°42' W 001°01'0 0.0
2014-Oct-27 19:33N 54°42' W 001°01'0 0.0
2014-Oct-27 18:30N 54°42' W 001°01'0 0.0
2014-Oct-27 17:33N 54°42' W 001°01'0 0.0
2014-Oct-27 16:30N 54°42' W 001°01'0 0.0
2014-Oct-27 15:24N 54°42' W 001°01'0 0.0
2014-Oct-27 14:27N 54°42' W 001°01'0 0.0
2014-Oct-27 13:33N 54°42' W 001°01'0 0.0
2014-Oct-27 12:27N 54°42' W 001°01'0 0.0
2014-Oct-27 11:33N 54°42' W 001°01'0 0.0
2014-Oct-27 10:30N 54°42' W 001°01'0 0.0
2014-Oct-27 09:33N 54°42' W 001°01'0 0.0
2014-Oct-27 08:06N 54°42' W 001°01'0 0.0
2014-Oct-27 07:24N 54°42' W 001°01'0 0.0
2014-Oct-27 06:06N 54°42' W 001°01'0 0.1
2014-Oct-27 05:33N 54°42' W 001°01'0 0.0
2014-Oct-27 04:27N 54°42' W 001°01'0 0.0
2014-Oct-27 03:27N 54°42' W 001°01'0 0.0
2014-Oct-27 02:33N 54°42' W 001°01'0 0.0
2014-Oct-27 01:30N 54°42' W 001°01'0 0.0
2014-Oct-27 00:33N 54°42' W 001°01'0 0.0
2014-Oct-26 23:32N 54°42' W 001°01'0 0.0
2014-Oct-26 22:33N 54°42' W 001°01'0 0.0
2014-Oct-26 21:33N 54°42' W 001°01'0 0.0
2014-Oct-26 20:33N 54°42' W 001°01'0 0.0
2014-Oct-26 19:33N 54°42' W 001°01'0 0.0
2014-Oct-26 18:18N 54°42' W 001°01'0 0.0
2014-Oct-26 17:21N 54°42' W 001°01'0 0.0
2014-Oct-26 16:33N 54°42' W 001°01'0 0.0
2014-Oct-26 15:24N 54°42' W 001°01'0 0.0
2014-Oct-26 14:21N 54°42' W 001°01'0 0.0
2014-Oct-26 13:27N 54°42' W 001°01'0 0.0
2014-Oct-26 12:27N 54°42' W 001°01'0 0.0
2014-Oct-26 11:30N 54°42' W 001°01'0 0.0
2014-Oct-26 10:30N 54°42' W 001°01'0 0.0
2014-Oct-26 09:30N 54°42' W 001°01'0 0.0
2014-Oct-26 08:33N 54°42' W 001°01'0 0.0
2014-Oct-26 07:30N 54°42' W 001°01'0 0.0
2014-Oct-26 06:18N 54°42' W 001°01'0 0.1
2014-Oct-26 05:34N 54°42' W 001°01'0 0.0
2014-Oct-26 04:33N 54°42' W 001°01'0 0.0
2014-Oct-26 03:33N 54°42' W 001°01'0 0.0
2014-Oct-26 02:33N 54°42' W 001°01'0 0.0
2014-Oct-26 01:33N 54°42' W 001°01'0 0.0
2014-Oct-26 00:33N 54°42' W 001°01'0 0.0
2014-Oct-25 23:33N 54°42' W 001°01'0 0.0
2014-Oct-25 22:33N 54°42' W 001°01'0 0.0
2014-Oct-25 21:30N 54°42' W 001°01'0 0.0
2014-Oct-25 20:34N 54°42' W 001°01'0 0.0
2014-Oct-25 19:30N 54°42' W 001°01'0 0.0
2014-Oct-25 18:33N 54°42' W 001°01'0 0.0
2014-Oct-25 16:33N 54°42' W 001°01'0 0.0
2014-Oct-25 15:33N 54°42' W 001°01'0 0.0
2014-Oct-25 14:33N 54°42' W 001°01'0 0.0
2014-Oct-25 13:33N 54°42' W 001°01'0 0.0
2014-Oct-25 12:24N 54°42' W 001°01'0 0.0
2014-Oct-25 11:33N 54°42' W 001°01'0 0.0
2014-Oct-25 10:24N 54°42' W 001°01'0 0.0
2014-Oct-25 09:27N 54°42' W 001°01'0 0.0
2014-Oct-25 08:12N 54°42' W 001°01'0 0.0
2014-Oct-25 07:30N 54°42' W 001°01'0 0.0
2014-Oct-25 06:30N 54°42' W 001°01'0 0.0
2014-Oct-25 05:33N 54°42' W 001°01'0 0.0
2014-Oct-25 04:33N 54°42' W 001°01'0 0.0
2014-Oct-25 03:34N 54°42' W 001°01'0 0.0
2014-Oct-25 02:33N 54°42' W 001°01'0 0.0
2014-Oct-25 01:33N 54°42' W 001°01'0 0.0
2014-Oct-25 00:33N 54°42' W 001°01'0 0.0
2014-Oct-24 23:33N 54°42' W 001°01'0 0.0
2014-Oct-24 22:33N 54°42' W 001°01'0 0.0
2014-Oct-24 21:33N 54°42' W 001°01'0 0.0
2014-Oct-24 20:30N 54°42' W 001°01'0 0.0
2014-Oct-24 19:33N 54°42' W 001°01'0 0.0
2014-Oct-24 18:33N 54°42' W 001°01'0 0.0
2014-Oct-24 17:30N 54°42' W 001°01'0 0.0
2014-Oct-24 14:33N 54°42' W 001°01'0 0.0
2014-Oct-24 13:33N 54°42' W 001°01'0 0.0
2014-Oct-24 12:33N 54°42' W 001°01'0 0.0
2014-Oct-24 11:30N 54°42' W 001°01'0 0.1
2014-Oct-24 10:21N 54°42' W 001°01'3 4.4
2014-Oct-24 09:33N 54°40' W 001°06'5 3.6
2014-Oct-24 08:16N 54°36' W 001°10'0 0.0
2014-Oct-23 14:25N 54°36' W 001°10'5 5.8
2014-Oct-23 13:33N 54°41' W 001°07'4 3.6
2014-Oct-23 12:29N 54°42' W 001°00'0 0.0
2014-Oct-23 11:29N 54°42' W 001°00'0 0.0
2014-Oct-23 10:17N 54°42' W 001°01'0 0.0
2014-Oct-23 09:32N 54°42' W 001°01'0 0.0
2014-Oct-23 08:17N 54°42' W 001°01'0 0.0
2014-Oct-23 07:20N 54°42' W 001°00'0 0.1
2014-Oct-23 06:32N 54°42' W 001°00'0 0.1
2014-Oct-23 05:21N 54°42' W 001°01'0 0.1
2014-Oct-23 04:32N 54°42' W 001°00'0 0.0
2014-Oct-23 03:32N 54°42' W 001°00'0 0.0
2014-Oct-23 02:32N 54°42' W 001°00'0 0.0
2014-Oct-23 01:32N 54°42' W 001°00'0 0.0
2014-Oct-23 00:32N 54°42' W 001°00'0 0.1
2014-Oct-22 23:32N 54°42' W 001°00'0 0.0
2014-Oct-22 22:32N 54°42' W 001°00'0 0.0
2014-Oct-22 21:32N 54°42' W 001°00'0 0.0
2014-Oct-22 20:32N 54°42' W 001°01'0 0.0
2014-Oct-22 19:32N 54°42' W 001°00'0 0.1
2014-Oct-22 18:32N 54°42' W 001°00'0 0.0
2014-Oct-22 17:32N 54°42' W 001°00'0 0.0
2014-Oct-22 16:32N 54°42' W 001°00'0 0.0
2014-Oct-22 15:32N 54°42' W 001°00'0 0.0
2014-Oct-22 14:32N 54°42' W 001°00'0 0.0
2014-Oct-22 13:32N 54°42' W 001°00'0 0.0
2014-Oct-22 12:32N 54°42' W 001°00'0 0.0
2014-Oct-22 11:32N 54°42' W 001°00'0 0.2
2014-Oct-22 10:32N 54°42' W 001°01'0 0.0
2014-Oct-22 09:29N 54°42' W 001°01'3 3.3
2014-Oct-22 08:33N 54°43' W 000°55'1111.0
2014-Oct-22 07:33N 54°45' W 000°36'0 0.4
2014-Oct-22 06:33N 54°45' W 000°36'1 0.6
2014-Oct-22 05:32N 54°45' W 000°37'1 1.0
2014-Oct-22 04:33N 54°45' W 000°39'1 1.4
2014-Oct-22 03:33N 54°46' W 000°40'2 1.7
2014-Oct-22 02:33N 54°47' W 000°43'2 1.9
2014-Oct-22 01:32N 54°49' W 000°45'2 1.8
2014-Oct-22 00:32N 54°50' W 000°47'2 1.6
2014-Oct-21 23:32N 54°51' W 000°49'1 1.4
2014-Oct-21 22:32N 54°52' W 000°51'5 4.7
2014-Oct-21 21:34N 54°49' W 000°45'  

Dump ship's entire track history